sensor_id;sensor_type;location;lat;lon;timestamp;P1;durP1;ratioP1;P2;durP2;ratioP2
2652;SDS011;1336;48.692;9.144;2022-12-07T06:00:23;8.50;;;7.70;;
2652;SDS011;1336;48.692;9.144;2022-12-07T06:01:15;8.45;;;7.65;;
2652;SDS011;1336;48.692;9.144;2022-12-07T06:02:06;8.60;;;7.80;;
2652;SDS011;1336;48.692;9.144;2022-12-07T06:02:59;8.88;;;7.97;;
2652;SDS011;1336;48.692;9.144;2022-12-07T06:03:50;8.50;;;7.70;;
2652;SDS011;1336;48.692;9.144;2022-12-07T06:04:42;8.80;;;8.02;;
2652;SDS011;1336;48.692;9.144;2022-12-07T06:05:34;8.90;;;8.10;;
2652;SDS011;1336;48.692;9.144;2022-12-07T06:06:26;8.23;;;7.38;;
2652;SDS011;1336;48.692;9.144;2022-12-07T06:07:17;8.47;;;7.67;;
2652;SDS011;1336;48.692;9.144;2022-12-07T06:08:08;9.20;;;8.35;;
2652;SDS011;1336;48.692;9.144;2022-12-07T06:08:59;8.67;;;7.90;;
2652;SDS011;1336;48.692;9.144;2022-12-07T06:09:51;8.65;;;7.82;;
2652;SDS011;1336;48.692;9.144;2022-12-07T06:10:42;7.63;;;6.93;;
2652;SDS011;1336;48.692;9.144;2022-12-07T06:11:34;9.93;;;8.90;;
2652;SDS011;1336;48.692;9.144;2022-12-07T06:12:43;14.18;;;11.80;;
2652;SDS011;1336;48.692;9.144;2022-12-07T06:13:36;12.50;;;11.20;;
2652;SDS011;1336;48.692;9.144;2022-12-07T06:14:26;11.30;;;10.10;;
2652;SDS011;1336;48.692;9.144;2022-12-07T06:15:18;12.20;;;10.50;;
2652;SDS011;1336;48.692;9.144;2022-12-07T06:16:11;12.55;;;10.77;;
2652;SDS011;1336;48.692;9.144;2022-12-07T06:17:02;11.18;;;9.93;;
2652;SDS011;1336;48.692;9.144;2022-12-07T06:17:54;12.60;;;10.23;;
2652;SDS011;1336;48.692;9.144;2022-12-07T06:18:44;9.80;;;8.80;;
2652;SDS011;1336;48.692;9.144;2022-12-07T06:19:36;11.95;;;9.15;;
2652;SDS011;1336;48.692;9.144;2022-12-07T06:20:27;12.47;;;10.43;;
2652;SDS011;1336;48.692;9.144;2022-12-07T06:21:19;10.15;;;9.15;;
2652;SDS011;1336;48.692;9.144;2022-12-07T06:22:09;11.83;;;9.70;;
2652;SDS011;1336;48.692;9.144;2022-12-07T06:23:02;11.23;;;9.88;;
2652;SDS011;1336;48.692;9.144;2022-12-07T06:23:53;10.13;;;9.10;;
2652;SDS011;1336;48.692;9.144;2022-12-07T06:24:45;9.73;;;8.77;;
2652;SDS011;1336;48.692;9.144;2022-12-07T06:25:36;9.10;;;8.20;;
2652;SDS011;1336;48.692;9.144;2022-12-07T06:26:27;8.83;;;8.03;;
2652;SDS011;1336;48.692;9.144;2022-12-07T06:27:19;10.48;;;8.35;;
2652;SDS011;1336;48.692;9.144;2022-12-07T06:28:10;9.37;;;8.47;;
2652;SDS011;1336;48.692;9.144;2022-12-07T06:29:01;9.40;;;8.50;;
2652;SDS011;1336;48.692;9.144;2022-12-07T06:29:52;8.63;;;7.77;;
2652;SDS011;1336;48.692;9.144;2022-12-07T06:30:44;8.68;;;7.70;;
2652;SDS011;1336;48.692;9.144;2022-12-07T06:31:36;8.13;;;7.43;;
2652;SDS011;1336;48.692;9.144;2022-12-07T06:32:28;7.03;;;6.40;;
2652;SDS011;1336;48.692;9.144;2022-12-07T06:33:19;7.60;;;6.90;;
2652;SDS011;1336;48.692;9.144;2022-12-07T06:34:11;7.70;;;7.00;;
2652;SDS011;1336;48.692;9.144;2022-12-07T06:35:04;8.25;;;7.32;;
2652;SDS011;1336;48.692;9.144;2022-12-07T06:35:56;7.55;;;6.85;;
2652;SDS011;1336;48.692;9.144;2022-12-07T06:36:46;7.60;;;6.90;;
2652;SDS011;1336;48.692;9.144;2022-12-07T06:37:41;12.45;;;11.07;;
2652;SDS011;1336;48.692;9.144;2022-12-07T06:38:31;12.63;;;11.30;;
2652;SDS011;1336;48.692;9.144;2022-12-07T06:39:24;12.93;;;11.55;;
2652;SDS011;1336;48.692;9.144;2022-12-07T06:40:16;13.68;;;11.82;;
2652;SDS011;1336;48.692;9.144;2022-12-07T06:41:08;13.60;;;11.70;;
2652;SDS011;1336;48.692;9.144;2022-12-07T06:41:58;12.40;;;11.10;;
2652;SDS011;1336;48.692;9.144;2022-12-07T06:42:50;12.93;;;10.50;;
2652;SDS011;1336;48.692;9.144;2022-12-07T06:43:41;13.07;;;11.47;;
2652;SDS011;1336;48.692;9.144;2022-12-07T06:44:33;12.23;;;10.93;;
2652;SDS011;1336;48.692;9.144;2022-12-07T06:45:24;17.08;;;11.68;;
2652;SDS011;1336;48.692;9.144;2022-12-07T06:46:15;12.90;;;10.60;;
2652;SDS011;1336;48.692;9.144;2022-12-07T06:47:09;11.40;;;10.20;;
2652;SDS011;1336;48.692;9.144;2022-12-07T06:47:59;11.63;;;10.40;;
2652;SDS011;1336;48.692;9.144;2022-12-07T06:48:51;11.98;;;10.15;;
2652;SDS011;1336;48.692;9.144;2022-12-07T06:49:42;9.60;;;8.60;;
2652;SDS011;1336;48.692;9.144;2022-12-07T06:50:34;10.02;;;8.60;;
2652;SDS011;1336;48.692;9.144;2022-12-07T06:51:24;10.30;;;8.70;;
2652;SDS011;1336;48.692;9.144;2022-12-07T06:52:16;9.23;;;8.43;;
2652;SDS011;1336;48.692;9.144;2022-12-07T06:53:07;10.77;;;9.47;;
2652;SDS011;1336;48.692;9.144;2022-12-07T06:54:00;13.10;;;11.10;;
2652;SDS011;1336;48.692;9.144;2022-12-07T06:54:50;13.97;;;10.67;;
2652;SDS011;1336;48.692;9.144;2022-12-07T06:55:42;12.70;;;9.90;;
2652;SDS011;1336;48.692;9.144;2022-12-07T06:56:33;11.17;;;9.80;;
2652;SDS011;1336;48.692;9.144;2022-12-07T06:57:24;10.90;;;9.50;;
2652;SDS011;1336;48.692;9.144;2022-12-07T06:58:15;9.47;;;8.57;;
2652;SDS011;1336;48.692;9.144;2022-12-07T06:59:07;9.07;;;8.10;;
2652;SDS011;1336;48.692;9.144;2022-12-07T06:59:59;8.05;;;7.25;;
2652;SDS011;1336;48.692;9.144;2022-12-07T07:00:50;7.73;;;7.03;;
2652;SDS011;1336;48.692;9.144;2022-12-07T07:01:42;7.50;;;6.70;;
2652;SDS011;1336;48.692;9.144;2022-12-07T07:02:34;9.17;;;7.53;;
2652;SDS011;1336;48.692;9.144;2022-12-07T07:03:26;8.10;;;7.30;;
2652;SDS011;1336;48.692;9.144;2022-12-07T07:04:17;7.40;;;6.60;;
2652;SDS011;1336;48.692;9.144;2022-12-07T07:05:08;8.70;;;7.80;;
2652;SDS011;1336;48.692;9.144;2022-12-07T07:05:59;8.73;;;7.60;;
2652;SDS011;1336;48.692;9.144;2022-12-07T07:06:51;8.55;;;7.65;;
2652;SDS011;1336;48.692;9.144;2022-12-07T07:07:41;8.03;;;7.23;;
2652;SDS011;1336;48.692;9.144;2022-12-07T07:08:33;8.25;;;7.50;;
2652;SDS011;1336;48.692;9.144;2022-12-07T07:09:24;8.23;;;7.43;;
2652;SDS011;1336;48.692;9.144;2022-12-07T07:10:16;8.38;;;7.57;;
2652;SDS011;1336;48.692;9.144;2022-12-07T07:11:07;7.43;;;6.73;;
2652;SDS011;1336;48.692;9.144;2022-12-07T07:12:00;8.02;;;7.22;;
2652;SDS011;1336;48.692;9.144;2022-12-07T07:12:50;9.23;;;8.33;;
2652;SDS011;1336;48.692;9.144;2022-12-07T07:13:42;8.27;;;7.35;;
2652;SDS011;1336;48.692;9.144;2022-12-07T07:14:35;10.30;;;8.10;;
2652;SDS011;1336;48.692;9.144;2022-12-07T07:15:26;8.77;;;7.88;;
2652;SDS011;1336;48.692;9.144;2022-12-07T07:16:18;9.30;;;8.00;;
2652;SDS011;1336;48.692;9.144;2022-12-07T07:17:08;8.30;;;7.50;;
2652;SDS011;1336;48.692;9.144;2022-12-07T07:18:01;8.73;;;7.93;;
2652;SDS011;1336;48.692;9.144;2022-12-07T07:18:53;9.05;;;8.15;;
2652;SDS011;1336;48.692;9.144;2022-12-07T07:19:45;9.70;;;8.80;;
2652;SDS011;1336;48.692;9.144;2022-12-07T07:20:35;9.93;;;8.97;;
2652;SDS011;1336;48.692;9.144;2022-12-07T07:21:27;9.70;;;8.80;;
2652;SDS011;1336;48.692;9.144;2022-12-07T07:22:18;8.63;;;7.83;;
2652;SDS011;1336;48.692;9.144;2022-12-07T07:23:09;10.02;;;9.05;;
2652;SDS011;1336;48.692;9.144;2022-12-07T07:24:00;9.50;;;8.60;;
2652;SDS011;1336;48.692;9.144;2022-12-07T07:24:52;8.93;;;8.13;;
2652;SDS011;1336;48.692;9.144;2022-12-07T07:25:43;9.40;;;8.50;;
2652;SDS011;1336;48.692;9.144;2022-12-07T07:26:35;11.15;;;10.00;;
2652;SDS011;1336;48.692;9.144;2022-12-07T07:27:26;9.07;;;8.17;;
2652;SDS011;1336;48.692;9.144;2022-12-07T07:28:17;9.40;;;8.40;;
2652;SDS011;1336;48.692;9.144;2022-12-07T07:29:09;9.82;;;8.85;;
2652;SDS011;1336;48.692;9.144;2022-12-07T07:30:00;9.90;;;8.83;;
2652;SDS011;1336;48.692;9.144;2022-12-07T07:30:52;9.93;;;8.95;;
2652;SDS011;1336;48.692;9.144;2022-12-07T07:31:42;10.50;;;9.40;;
2652;SDS011;1336;48.692;9.144;2022-12-07T07:32:34;9.80;;;8.80;;
2652;SDS011;1336;48.692;9.144;2022-12-07T07:33:26;10.40;;;9.37;;
2652;SDS011;1336;48.692;9.144;2022-12-07T07:34:18;10.30;;;9.35;;
2652;SDS011;1336;48.692;9.144;2022-12-07T07:35:09;10.23;;;9.30;;
2652;SDS011;1336;48.692;9.144;2022-12-07T07:36:00;10.32;;;9.32;;
2652;SDS011;1336;48.692;9.144;2022-12-07T07:36:51;9.83;;;8.83;;
2652;SDS011;1336;48.692;9.144;2022-12-07T07:37:43;10.75;;;9.65;;
2652;SDS011;1336;48.692;9.144;2022-12-07T07:38:33;11.20;;;9.97;;
2652;SDS011;1336;48.692;9.144;2022-12-07T07:39:25;10.13;;;9.20;;
2652;SDS011;1336;48.692;9.144;2022-12-07T07:40:16;11.13;;;10.03;;
2652;SDS011;1336;48.692;9.144;2022-12-07T07:41:08;11.55;;;10.23;;
2652;SDS011;1336;48.692;9.144;2022-12-07T07:41:58;10.30;;;9.30;;
2652;SDS011;1336;48.692;9.144;2022-12-07T07:42:51;10.68;;;9.57;;
2652;SDS011;1336;48.692;9.144;2022-12-07T07:43:43;10.73;;;9.63;;
2652;SDS011;1336;48.692;9.144;2022-12-07T07:44:35;11.27;;;10.10;;
2652;SDS011;1336;48.692;9.144;2022-12-07T07:45:26;10.90;;;9.80;;
2652;SDS011;1336;48.692;9.144;2022-12-07T07:46:18;11.45;;;10.35;;
2652;SDS011;1336;48.692;9.144;2022-12-07T07:47:08;11.23;;;9.60;;
2652;SDS011;1336;48.692;9.144;2022-12-07T07:48:00;10.38;;;9.38;;
2652;SDS011;1336;48.692;9.144;2022-12-07T07:48:52;11.07;;;9.95;;
2652;SDS011;1336;48.692;9.144;2022-12-07T07:49:44;11.40;;;10.20;;
2652;SDS011;1336;48.692;9.144;2022-12-07T07:50:35;11.40;;;10.30;;
2652;SDS011;1336;48.692;9.144;2022-12-07T07:51:27;11.70;;;10.63;;
2652;SDS011;1336;48.692;9.144;2022-12-07T07:52:18;11.53;;;10.37;;
2652;SDS011;1336;48.692;9.144;2022-12-07T07:53:09;10.80;;;9.70;;
2652;SDS011;1336;48.692;9.144;2022-12-07T07:54:00;11.13;;;10.00;;
2652;SDS011;1336;48.692;9.144;2022-12-07T07:54:52;10.40;;;9.40;;
2652;SDS011;1336;48.692;9.144;2022-12-07T07:55:49;10.60;;;9.60;;
2652;SDS011;1336;48.692;9.144;2022-12-07T07:56:41;10.80;;;9.80;;
2652;SDS011;1336;48.692;9.144;2022-12-07T07:57:32;9.40;;;8.50;;
2652;SDS011;1336;48.692;9.144;2022-12-07T07:58:24;11.30;;;10.10;;
2652;SDS011;1336;48.692;9.144;2022-12-07T07:59:16;11.00;;;9.90;;
2652;SDS011;1336;48.692;9.144;2022-12-07T08:00:07;11.83;;;10.63;;
2652;SDS011;1336;48.692;9.144;2022-12-07T08:01:03;12.02;;;10.82;;
2652;SDS011;1336;48.692;9.144;2022-12-07T08:01:54;12.48;;;11.18;;
2652;SDS011;1336;48.692;9.144;2022-12-07T08:02:46;11.73;;;10.63;;
2652;SDS011;1336;48.692;9.144;2022-12-07T08:03:37;10.60;;;9.60;;
2652;SDS011;1336;48.692;9.144;2022-12-07T08:04:30;10.73;;;9.65;;
2652;SDS011;1336;48.692;9.144;2022-12-07T08:05:21;10.90;;;9.80;;
2652;SDS011;1336;48.692;9.144;2022-12-07T08:06:12;9.93;;;8.93;;
2652;SDS011;1336;48.692;9.144;2022-12-07T08:07:03;10.93;;;9.83;;
2652;SDS011;1336;48.692;9.144;2022-12-07T08:07:55;11.07;;;9.93;;
2652;SDS011;1336;48.692;9.144;2022-12-07T08:08:47;10.65;;;9.55;;
2652;SDS011;1336;48.692;9.144;2022-12-07T08:09:39;10.45;;;9.32;;
2652;SDS011;1336;48.692;9.144;2022-12-07T08:10:30;11.50;;;10.40;;
2652;SDS011;1336;48.692;9.144;2022-12-07T08:11:22;10.65;;;9.40;;
2652;SDS011;1336;48.692;9.144;2022-12-07T08:12:12;10.13;;;9.10;;
2652;SDS011;1336;48.692;9.144;2022-12-07T08:13:04;10.35;;;9.25;;
2652;SDS011;1336;48.692;9.144;2022-12-07T08:14:01;10.02;;;9.13;;
2652;SDS011;1336;48.692;9.144;2022-12-07T08:14:53;9.82;;;8.90;;
2652;SDS011;1336;48.692;9.144;2022-12-07T08:15:45;10.63;;;9.60;;
2652;SDS011;1336;48.692;9.144;2022-12-07T08:16:38;10.15;;;9.00;;
2652;SDS011;1336;48.692;9.144;2022-12-07T08:17:29;10.63;;;9.63;;
2652;SDS011;1336;48.692;9.144;2022-12-07T08:18:20;11.07;;;9.60;;
2652;SDS011;1336;48.692;9.144;2022-12-07T08:19:12;11.00;;;10.00;;
2652;SDS011;1336;48.692;9.144;2022-12-07T08:20:06;10.77;;;9.68;;
2652;SDS011;1336;48.692;9.144;2022-12-07T08:20:58;10.75;;;9.70;;
2652;SDS011;1336;48.692;9.144;2022-12-07T08:21:50;9.90;;;9.00;;
2652;SDS011;1336;48.692;9.144;2022-12-07T08:22:41;9.10;;;8.20;;
2652;SDS011;1336;48.692;9.144;2022-12-07T08:23:33;10.38;;;9.38;;
2652;SDS011;1336;48.692;9.144;2022-12-07T08:24:24;9.53;;;8.63;;
2652;SDS011;1336;48.692;9.144;2022-12-07T08:25:16;10.20;;;9.10;;
2652;SDS011;1336;48.692;9.144;2022-12-07T08:26:07;9.60;;;8.60;;
2652;SDS011;1336;48.692;9.144;2022-12-07T08:27:00;10.38;;;9.35;;
2652;SDS011;1336;48.692;9.144;2022-12-07T08:27:51;8.67;;;7.77;;
2652;SDS011;1336;48.692;9.144;2022-12-07T08:28:43;8.20;;;7.50;;
2652;SDS011;1336;48.692;9.144;2022-12-07T08:29:35;9.38;;;8.48;;
2652;SDS011;1336;48.692;9.144;2022-12-07T08:30:26;8.35;;;7.55;;
2652;SDS011;1336;48.692;9.144;2022-12-07T08:31:18;8.77;;;7.95;;
2652;SDS011;1336;48.692;9.144;2022-12-07T08:32:09;9.43;;;7.80;;
2652;SDS011;1336;48.692;9.144;2022-12-07T08:33:00;8.90;;;8.10;;
2652;SDS011;1336;48.692;9.144;2022-12-07T08:33:52;9.68;;;8.70;;
2652;SDS011;1336;48.692;9.144;2022-12-07T08:34:43;8.10;;;7.30;;
2652;SDS011;1336;48.692;9.144;2022-12-07T08:35:36;9.20;;;8.35;;
2652;SDS011;1336;48.692;9.144;2022-12-07T08:36:27;9.07;;;8.18;;
2652;SDS011;1336;48.692;9.144;2022-12-07T08:37:19;11.00;;;8.25;;
2652;SDS011;1336;48.692;9.144;2022-12-07T08:38:09;8.57;;;7.63;;
2652;SDS011;1336;48.692;9.144;2022-12-07T08:39:01;9.20;;;8.30;;
2652;SDS011;1336;48.692;9.144;2022-12-07T08:39:52;9.03;;;8.13;;
2652;SDS011;1336;48.692;9.144;2022-12-07T08:40:44;8.77;;;7.97;;
2652;SDS011;1336;48.692;9.144;2022-12-07T08:41:34;8.07;;;7.37;;
2652;SDS011;1336;48.692;9.144;2022-12-07T08:42:26;8.68;;;7.80;;
2652;SDS011;1336;48.692;9.144;2022-12-07T08:43:19;8.55;;;7.85;;
2652;SDS011;1336;48.692;9.144;2022-12-07T08:44:11;9.00;;;8.10;;
2652;SDS011;1336;48.692;9.144;2022-12-07T08:45:02;10.03;;;9.03;;
2652;SDS011;1336;48.692;9.144;2022-12-07T08:45:56;9.57;;;8.68;;
2652;SDS011;1336;48.692;9.144;2022-12-07T08:46:55;8.90;;;8.10;;
2652;SDS011;1336;48.692;9.144;2022-12-07T08:47:50;8.05;;;7.13;;
2652;SDS011;1336;48.692;9.144;2022-12-07T08:48:45;9.30;;;8.40;;
2652;SDS011;1336;48.692;9.144;2022-12-07T08:49:41;9.40;;;8.40;;
2652;SDS011;1336;48.692;9.144;2022-12-07T08:50:38;9.30;;;8.40;;
2652;SDS011;1336;48.692;9.144;2022-12-07T08:51:29;8.75;;;7.68;;
2652;SDS011;1336;48.692;9.144;2022-12-07T08:52:21;8.73;;;7.88;;
2652;SDS011;1336;48.692;9.144;2022-12-07T08:53:12;8.93;;;7.97;;
2652;SDS011;1336;48.692;9.144;2022-12-07T08:54:06;9.90;;;7.85;;
2652;SDS011;1336;48.692;9.144;2022-12-07T08:54:59;9.57;;;8.60;;
2652;SDS011;1336;48.692;9.144;2022-12-07T08:55:53;10.48;;;8.80;;
2652;SDS011;1336;48.692;9.144;2022-12-07T08:56:46;10.25;;;9.25;;
2652;SDS011;1336;48.692;9.144;2022-12-07T08:57:39;9.07;;;8.20;;
2652;SDS011;1336;48.692;9.144;2022-12-07T08:58:32;16.13;;;14.63;;
2652;SDS011;1336;48.692;9.144;2022-12-07T08:59:25;10.93;;;9.93;;
2652;SDS011;1336;48.692;9.144;2022-12-07T09:00:16;10.77;;;9.77;;
2652;SDS011;1336;48.692;9.144;2022-12-07T09:01:09;10.52;;;9.45;;
2652;SDS011;1336;48.692;9.144;2022-12-07T09:01:59;11.73;;;10.53;;
2652;SDS011;1336;48.692;9.144;2022-12-07T09:02:51;9.35;;;8.45;;
2652;SDS011;1336;48.692;9.144;2022-12-07T09:03:43;9.10;;;8.20;;
2652;SDS011;1336;48.692;9.144;2022-12-07T09:04:34;9.32;;;8.30;;
2652;SDS011;1336;48.692;9.144;2022-12-07T09:05:25;9.70;;;8.30;;
2652;SDS011;1336;48.692;9.144;2022-12-07T09:06:18;9.25;;;8.02;;
2652;SDS011;1336;48.692;9.144;2022-12-07T09:07:09;8.75;;;7.85;;
2652;SDS011;1336;48.692;9.144;2022-12-07T09:08:01;9.18;;;8.10;;
2652;SDS011;1336;48.692;9.144;2022-12-07T09:08:53;8.37;;;7.53;;
2652;SDS011;1336;48.692;9.144;2022-12-07T09:09:49;8.55;;;7.50;;
2652;SDS011;1336;48.692;9.144;2022-12-07T09:10:40;8.80;;;7.32;;
2652;SDS011;1336;48.692;9.144;2022-12-07T09:11:31;9.60;;;8.60;;
2652;SDS011;1336;48.692;9.144;2022-12-07T09:12:23;9.60;;;8.50;;
2652;SDS011;1336;48.692;9.144;2022-12-07T09:13:14;9.50;;;8.40;;
2652;SDS011;1336;48.692;9.144;2022-12-07T09:14:05;8.75;;;7.90;;
2652;SDS011;1336;48.692;9.144;2022-12-07T09:14:56;8.20;;;7.40;;
2652;SDS011;1336;48.692;9.144;2022-12-07T09:15:48;8.60;;;7.80;;
2652;SDS011;1336;48.692;9.144;2022-12-07T09:16:39;9.20;;;7.70;;
2652;SDS011;1336;48.692;9.144;2022-12-07T09:17:31;9.30;;;8.30;;
2652;SDS011;1336;48.692;9.144;2022-12-07T09:18:23;9.05;;;8.15;;
2652;SDS011;1336;48.692;9.144;2022-12-07T09:19:15;9.07;;;8.13;;
2652;SDS011;1336;48.692;9.144;2022-12-07T09:20:07;8.90;;;8.00;;
2652;SDS011;1336;48.692;9.144;2022-12-07T09:20:58;8.43;;;7.40;;
2652;SDS011;1336;48.692;9.144;2022-12-07T09:21:51;8.63;;;7.80;;
2652;SDS011;1336;48.692;9.144;2022-12-07T09:22:42;7.78;;;6.97;;
2652;SDS011;1336;48.692;9.144;2022-12-07T09:23:33;7.97;;;7.18;;
2652;SDS011;1336;48.692;9.144;2022-12-07T09:24:24;7.90;;;7.10;;
2652;SDS011;1336;48.692;9.144;2022-12-07T09:25:16;7.50;;;6.80;;
2652;SDS011;1336;48.692;9.144;2022-12-07T09:26:07;8.03;;;7.23;;
2652;SDS011;1336;48.692;9.144;2022-12-07T09:26:58;7.05;;;6.45;;
2652;SDS011;1336;48.692;9.144;2022-12-07T09:27:54;7.77;;;7.07;;
2652;SDS011;1336;48.692;9.144;2022-12-07T09:28:47;7.72;;;7.03;;
2652;SDS011;1336;48.692;9.144;2022-12-07T09:29:37;8.17;;;7.47;;
2652;SDS011;1336;48.692;9.144;2022-12-07T09:30:29;8.40;;;7.60;;
2652;SDS011;1336;48.692;9.144;2022-12-07T09:31:20;7.77;;;6.97;;
2652;SDS011;1336;48.692;9.144;2022-12-07T09:32:11;8.07;;;7.25;;
2652;SDS011;1336;48.692;9.144;2022-12-07T09:33:02;7.68;;;6.90;;
2652;SDS011;1336;48.692;9.144;2022-12-07T09:33:54;7.72;;;6.93;;
2652;SDS011;1336;48.692;9.144;2022-12-07T09:34:45;7.63;;;6.93;;
2652;SDS011;1336;48.692;9.144;2022-12-07T09:35:37;6.90;;;6.25;;
2652;SDS011;1336;48.692;9.144;2022-12-07T09:36:28;6.57;;;5.97;;
2652;SDS011;1336;48.692;9.144;2022-12-07T09:37:21;7.50;;;6.80;;
2652;SDS011;1336;48.692;9.144;2022-12-07T09:38:13;8.00;;;7.30;;
2652;SDS011;1336;48.692;9.144;2022-12-07T09:39:04;7.70;;;7.00;;
2652;SDS011;1336;48.692;9.144;2022-12-07T09:39:56;7.10;;;6.40;;
2652;SDS011;1336;48.692;9.144;2022-12-07T09:40:47;7.47;;;6.77;;
2652;SDS011;1336;48.692;9.144;2022-12-07T09:41:39;6.85;;;6.15;;
2652;SDS011;1336;48.692;9.144;2022-12-07T09:42:33;7.00;;;6.32;;
2652;SDS011;1336;48.692;9.144;2022-12-07T09:43:26;7.95;;;7.25;;
2652;SDS011;1336;48.692;9.144;2022-12-07T09:44:18;7.93;;;7.23;;
2652;SDS011;1336;48.692;9.144;2022-12-07T09:45:14;7.05;;;6.45;;
2652;SDS011;1336;48.692;9.144;2022-12-07T09:46:08;7.13;;;6.32;;
2652;SDS011;1336;48.692;9.144;2022-12-07T09:47:07;7.18;;;6.57;;
2652;SDS011;1336;48.692;9.144;2022-12-07T09:48:00;7.93;;;7.13;;
2652;SDS011;1336;48.692;9.144;2022-12-07T09:48:53;7.70;;;6.93;;
2652;SDS011;1336;48.692;9.144;2022-12-07T09:49:44;7.93;;;7.07;;
2652;SDS011;1336;48.692;9.144;2022-12-07T09:50:36;7.00;;;6.30;;
2652;SDS011;1336;48.692;9.144;2022-12-07T09:51:26;7.03;;;6.40;;
2652;SDS011;1336;48.692;9.144;2022-12-07T09:52:19;6.90;;;6.30;;
2652;SDS011;1336;48.692;9.144;2022-12-07T09:53:17;6.68;;;6.07;;
2652;SDS011;1336;48.692;9.144;2022-12-07T09:54:14;7.95;;;7.15;;
2652;SDS011;1336;48.692;9.144;2022-12-07T09:55:11;7.72;;;7.03;;
2652;SDS011;1336;48.692;9.144;2022-12-07T09:56:04;7.45;;;6.75;;
2652;SDS011;1336;48.692;9.144;2022-12-07T09:56:55;7.43;;;6.72;;
2652;SDS011;1336;48.692;9.144;2022-12-07T09:57:47;6.65;;;5.97;;
2652;SDS011;1336;48.692;9.144;2022-12-07T09:58:41;7.20;;;6.50;;
2652;SDS011;1336;48.692;9.144;2022-12-07T09:59:32;8.63;;;7.53;;
2652;SDS011;1336;48.692;9.144;2022-12-07T10:00:25;9.00;;;7.05;;
2652;SDS011;1336;48.692;9.144;2022-12-07T10:01:19;6.65;;;6.00;;
2652;SDS011;1336;48.692;9.144;2022-12-07T10:02:22;7.32;;;6.60;;
2652;SDS011;1336;48.692;9.144;2022-12-07T10:03:17;6.35;;;5.75;;
2652;SDS011;1336;48.692;9.144;2022-12-07T10:04:09;10.32;;;6.38;;
2652;SDS011;1336;48.692;9.144;2022-12-07T10:05:04;6.85;;;6.15;;
2652;SDS011;1336;48.692;9.144;2022-12-07T10:05:58;6.55;;;5.95;;
2652;SDS011;1336;48.692;9.144;2022-12-07T10:06:50;7.28;;;6.57;;
2652;SDS011;1336;48.692;9.144;2022-12-07T10:07:42;6.63;;;6.03;;
2652;SDS011;1336;48.692;9.144;2022-12-07T10:08:34;6.13;;;5.27;;
2652;SDS011;1336;48.692;9.144;2022-12-07T10:09:26;5.90;;;5.40;;
2652;SDS011;1336;48.692;9.144;2022-12-07T10:10:20;6.32;;;5.72;;
2652;SDS011;1336;48.692;9.144;2022-12-07T10:11:15;6.68;;;5.97;;
2652;SDS011;1336;48.692;9.144;2022-12-07T10:12:08;6.82;;;6.13;;
2652;SDS011;1336;48.692;9.144;2022-12-07T10:13:00;6.68;;;5.68;;
2652;SDS011;1336;48.692;9.144;2022-12-07T10:13:54;6.50;;;5.90;;
2652;SDS011;1336;48.692;9.144;2022-12-07T10:14:53;6.87;;;5.77;;
2652;SDS011;1336;48.692;9.144;2022-12-07T10:15:48;6.20;;;5.60;;
2652;SDS011;1336;48.692;9.144;2022-12-07T10:16:42;6.63;;;6.03;;
2652;SDS011;1336;48.692;9.144;2022-12-07T10:17:37;6.47;;;5.82;;
2652;SDS011;1336;48.692;9.144;2022-12-07T10:18:31;6.95;;;6.22;;
2652;SDS011;1336;48.692;9.144;2022-12-07T10:19:27;5.93;;;5.32;;
2652;SDS011;1336;48.692;9.144;2022-12-07T10:20:21;6.28;;;5.68;;
2652;SDS011;1336;48.692;9.144;2022-12-07T10:21:16;6.53;;;5.93;;
2652;SDS011;1336;48.692;9.144;2022-12-07T10:22:11;5.97;;;5.38;;
2652;SDS011;1336;48.692;9.144;2022-12-07T10:23:05;5.82;;;5.22;;
2652;SDS011;1336;48.692;9.144;2022-12-07T10:24:12;6.28;;;5.78;;
2652;SDS011;1336;48.692;9.144;2022-12-07T10:25:09;6.03;;;5.43;;
2652;SDS011;1336;48.692;9.144;2022-12-07T10:27:30;7.47;;;6.78;;
2652;SDS011;1336;48.692;9.144;2022-12-07T10:28:22;6.50;;;5.90;;
2652;SDS011;1336;48.692;9.144;2022-12-07T10:29:14;6.40;;;5.80;;
2652;SDS011;1336;48.692;9.144;2022-12-07T10:30:12;5.75;;;5.20;;
2652;SDS011;1336;48.692;9.144;2022-12-07T10:31:15;5.93;;;5.32;;
2652;SDS011;1336;48.692;9.144;2022-12-07T10:32:25;6.50;;;5.60;;
2652;SDS011;1336;48.692;9.144;2022-12-07T10:33:29;6.20;;;5.63;;
2652;SDS011;1336;48.692;9.144;2022-12-07T10:34:22;6.28;;;5.68;;
2652;SDS011;1336;48.692;9.144;2022-12-07T10:35:23;6.28;;;5.68;;
2652;SDS011;1336;48.692;9.144;2022-12-07T10:36:16;6.25;;;5.65;;
2652;SDS011;1336;48.692;9.144;2022-12-07T10:37:14;5.90;;;5.40;;
2652;SDS011;1336;48.692;9.144;2022-12-07T10:38:07;5.78;;;5.18;;
2652;SDS011;1336;48.692;9.144;2022-12-07T10:39:12;5.53;;;5.03;;
2652;SDS011;1336;48.692;9.144;2022-12-07T10:40:10;6.00;;;5.40;;
2652;SDS011;1336;48.692;9.144;2022-12-07T10:41:15;6.43;;;5.82;;
2652;SDS011;1336;48.692;9.144;2022-12-07T10:42:09;7.22;;;5.25;;
2652;SDS011;1336;48.692;9.144;2022-12-07T10:43:15;6.38;;;5.60;;
2652;SDS011;1336;48.692;9.144;2022-12-07T10:44:08;6.10;;;5.50;;
2652;SDS011;1336;48.692;9.144;2022-12-07T10:45:13;6.03;;;5.38;;
2652;SDS011;1336;48.692;9.144;2022-12-07T10:46:10;5.75;;;5.25;;
2652;SDS011;1336;48.692;9.144;2022-12-07T10:47:24;6.75;;;5.30;;
2652;SDS011;1336;48.692;9.144;2022-12-07T10:48:23;6.80;;;5.90;;
2652;SDS011;1336;48.692;9.144;2022-12-07T10:50:47;5.75;;;5.25;;
2652;SDS011;1336;48.692;9.144;2022-12-07T10:51:50;6.65;;;5.68;;
2652;SDS011;1336;48.692;9.144;2022-12-07T10:52:58;6.70;;;5.95;;
2652;SDS011;1336;48.692;9.144;2022-12-07T10:54:14;7.00;;;6.30;;
2652;SDS011;1336;48.692;9.144;2022-12-07T10:55:15;6.10;;;5.50;;
2652;SDS011;1336;48.692;9.144;2022-12-07T10:56:19;6.80;;;5.93;;
2652;SDS011;1336;48.692;9.144;2022-12-07T10:57:27;6.90;;;5.60;;
2652;SDS011;1336;48.692;9.144;2022-12-07T10:58:38;5.85;;;5.25;;
2652;SDS011;1336;48.692;9.144;2022-12-07T10:59:46;5.50;;;5.00;;
2652;SDS011;1336;48.692;9.144;2022-12-07T11:00:54;5.90;;;5.30;;
2652;SDS011;1336;48.692;9.144;2022-12-07T11:01:57;6.57;;;5.93;;
2652;SDS011;1336;48.692;9.144;2022-12-07T11:03:10;6.13;;;5.47;;
2652;SDS011;1336;48.692;9.144;2022-12-07T11:04:19;5.55;;;5.05;;
2652;SDS011;1336;48.692;9.144;2022-12-07T11:05:21;5.55;;;5.05;;
2652;SDS011;1336;48.692;9.144;2022-12-07T11:06:20;5.53;;;5.03;;
2652;SDS011;1336;48.692;9.144;2022-12-07T11:07:21;6.72;;;5.63;;
2652;SDS011;1336;48.692;9.144;2022-12-07T11:08:19;5.50;;;5.00;;
2652;SDS011;1336;48.692;9.144;2022-12-07T11:09:26;6.00;;;5.40;;
2652;SDS011;1336;48.692;9.144;2022-12-07T11:10:39;6.00;;;5.40;;
2652;SDS011;1336;48.692;9.144;2022-12-07T11:11:36;5.88;;;5.10;;
2652;SDS011;1336;48.692;9.144;2022-12-07T11:12:37;5.85;;;5.25;;
2652;SDS011;1336;48.692;9.144;2022-12-07T11:13:41;7.95;;;5.10;;
2652;SDS011;1336;48.692;9.144;2022-12-07T11:14:40;5.63;;;4.97;;
2652;SDS011;1336;48.692;9.144;2022-12-07T11:17:31;6.85;;;6.05;;
2652;SDS011;1336;48.692;9.144;2022-12-07T11:18:27;5.95;;;5.40;;
2652;SDS011;1336;48.692;9.144;2022-12-07T11:19:29;5.90;;;5.30;;
2652;SDS011;1336;48.692;9.144;2022-12-07T11:20:39;5.47;;;5.00;;
2652;SDS011;1336;48.692;9.144;2022-12-07T11:21:38;6.93;;;5.30;;
2652;SDS011;1336;48.692;9.144;2022-12-07T11:22:36;5.70;;;5.15;;
2652;SDS011;1336;48.692;9.144;2022-12-07T11:23:40;5.70;;;5.20;;
2652;SDS011;1336;48.692;9.144;2022-12-07T11:24:41;5.63;;;5.00;;
2652;SDS011;1336;48.692;9.144;2022-12-07T11:25:38;7.00;;;5.25;;
2652;SDS011;1336;48.692;9.144;2022-12-07T11:26:42;5.95;;;5.35;;
2652;SDS011;1336;48.692;9.144;2022-12-07T11:27:48;7.80;;;5.40;;
2652;SDS011;1336;48.692;9.144;2022-12-07T11:28:56;6.20;;;5.70;;
2652;SDS011;1336;48.692;9.144;2022-12-07T11:30:02;5.80;;;5.30;;
2652;SDS011;1336;48.692;9.144;2022-12-07T11:31:03;6.47;;;5.78;;
2652;SDS011;1336;48.692;9.144;2022-12-07T11:32:04;6.25;;;4.85;;
2652;SDS011;1336;48.692;9.144;2022-12-07T11:33:09;6.63;;;5.75;;
2652;SDS011;1336;48.692;9.144;2022-12-07T11:34:05;6.18;;;5.28;;
2652;SDS011;1336;48.692;9.144;2022-12-07T11:35:03;5.10;;;4.60;;
2652;SDS011;1336;48.692;9.144;2022-12-07T11:36:02;6.82;;;5.43;;
2652;SDS011;1336;48.692;9.144;2022-12-07T11:37:01;5.35;;;4.85;;
2652;SDS011;1336;48.692;9.144;2022-12-07T11:37:57;6.50;;;5.80;;